createdAt,value
2018-09-10T00:09:56.053Z,66.4
2018-09-10T00:26:39.279Z,66.4
2018-09-10T00:43:22.145Z,66.4
2018-09-10T01:00:04.926Z,66.8
2018-09-10T01:16:47.636Z,66.8
2018-09-10T01:33:30.426Z,66.8
2018-09-10T01:50:13.078Z,66.8
2018-09-10T02:23:38.607Z,66.8
2018-09-10T02:40:21.478Z,66.8
2018-09-10T02:57:04.233Z,66.8
2018-09-10T03:13:47.074Z,66.8
2018-09-10T03:30:30.573Z,67.2
2018-09-10T03:47:12.853Z,68.0
2018-09-10T04:03:55.930Z,67.6
2018-09-10T04:20:39.120Z,68.0
2018-09-10T04:37:22.252Z,68.0
2018-09-10T05:10:48.546Z,68.4
2018-09-10T05:27:31.760Z,68.8
2018-09-10T05:44:14.910Z,69.2
2018-09-10T06:00:58.134Z,69.6
2018-09-10T06:17:41.547Z,70.0
2018-09-10T06:34:25.310Z,69.6
2018-09-10T06:51:09.770Z,69.6
2018-09-10T07:24:39.739Z,70.4
2018-09-10T07:34:42.993Z,70.4
2018-09-10T07:41:25.373Z,69.6
2018-09-10T07:58:12.409Z,69.6
2018-09-10T08:14:57.728Z,70.0
2018-09-10T08:31:43.505Z,70.4
2018-09-10T09:05:15.706Z,70.4
2018-09-10T09:22:02.362Z,70.0
2018-09-10T09:32:06.594Z,69.6
2018-09-10T09:48:53.975Z,68.4
2018-09-10T10:05:41.562Z,68.4
2018-09-10T10:22:29.135Z,68.0
2018-09-10T10:39:16.808Z,67.6
2018-09-10T10:56:04.358Z,67.6
2018-09-10T11:12:52.416Z,66.4
2018-09-10T11:29:40.508Z,64.8
2018-09-10T11:46:29.157Z,64.4
2018-09-10T12:03:17.680Z,64.0
2018-09-10T12:20:06.090Z,64.0
2018-09-10T12:36:54.517Z,63.6
2018-09-10T12:53:43.441Z,62.8
2018-09-10T13:10:32.930Z,61.6
2018-09-10T13:27:22.109Z,61.6
2018-09-10T13:44:11.522Z,60.4
2018-09-10T14:01:00.484Z,58.8
2018-09-10T14:17:49.366Z,58.4
2018-09-10T14:34:37.978Z,58.8
2018-09-10T14:51:26.203Z,58.8
2018-09-10T15:08:14.408Z,59.2
2018-09-10T15:25:02.510Z,59.2
2018-09-10T15:41:50.558Z,59.6
2018-09-10T15:58:38.317Z,60.0
2018-09-10T16:15:26.815Z,60.0
2018-09-10T16:32:13.677Z,60.4
2018-09-10T16:49:01.031Z,60.8
2018-09-10T17:05:48.219Z,61.2
2018-09-10T17:39:21.961Z,62.0
2018-09-10T17:56:08.502Z,62.4
2018-09-10T18:12:54.878Z,62.8
2018-09-10T18:29:41.689Z,63.6
2018-09-10T18:46:27.149Z,64.0
2018-09-10T19:03:12.901Z,64.8
2018-09-10T19:19:58.486Z,65.2
2018-09-10T19:36:43.859Z,66.0
2018-09-10T19:53:29.100Z,66.8
2018-09-10T20:10:14.176Z,67.6
2018-09-10T20:26:59.441Z,68.4
2018-09-10T21:00:28.982Z,69.6
2018-09-10T21:17:13.838Z,69.6
2018-09-10T21:33:58.565Z,70.0
2018-09-10T21:50:43.383Z,70.8
2018-09-10T22:07:27.785Z,71.2
2018-09-10T22:24:11.932Z,72.0
2018-09-10T22:40:56.059Z,72.8
2018-09-10T22:57:40.156Z,72.8
2018-09-10T23:31:08.227Z,73.6
2018-09-10T23:47:52.371Z,74.0
